Pagina principale
METAR-TAF:

METAR-TAF

Aeroporti :

Aeroporto di Cagliari-Elmas

Cagliari, Italia

latitudine: 39-15N, longitudine: 009-04E, altezza: 4 m

Osservazione

Il bollettino è stato emesso 22 minuti fa, alle 09:20 UTC
Vento 2 kt da direzioni variabili
Temperature 21°C
Umidità 88%
Pressione 1013 hPa
Visibilità 10 km o più
Poco nuvoloso ad un'altezza di 4500 ft

METAR: LIEE 170920Z VRB02KT 9999 FEW045 21/19 Q1013

Ora: 11:42 (09:42 UTC)

Previsione

Il bollettino è stato emesso 3 ore e 49 minuti fa, alle 05:53 UTC
Previsione valida dal 17 alle 06 UTC al 18 alle 06 UTC
Vento 4 kt da direzioni variabili
Visibilità: 0500 m
Nubi sparse ad un'altezza di 3000 ft
nebbia
Evoluzione graduale
dal 17 alle 07 UTC al 17 alle 09 UTC
Vento 10 kt da sud/sud-est
Visibilità: 7000 m
Temporaneamente
dal 17 alle 08 UTC al 17 alle 15 UTC
Visibilità: 4000 m
temporale, pioggia

TAF: LIEE 170553Z 1706/1806 VRB04KT 0500 FG SCT030 BECMG 1707/1709 16010KT 7000 NSW TEMPO 1708/1715 4000 TSRA

Osservazioni e previsioni meteorologiche di più di 4000 aeroporti (messaggi METAR e TAF).

Le stazioni disponibili sono rappresentate dai dischi gialli e rossi sulla carta.

Puntare il mouse per vedere il nome della stazione.

Clicca sopra per visualizzare le osservazioni e previsioni meteorologiche.

Per cambiare la mappa : fare clic sui pulsanti verdi con una croce nera per ingrandire, il pulsante verde con un trattino per diminuire, o sulla freccia verde per le mappe adiacenti.


METAR-TAF: